createdAt,value
2018-03-06T00:00:45.285Z,28.67
2018-03-06T00:03:12.178Z,28.27
2018-03-06T00:05:38.957Z,30.70
2018-03-06T00:08:05.663Z,27.90
2018-03-06T00:10:32.318Z,29.37
2018-03-06T00:12:59.182Z,34.45
2018-03-06T00:15:25.969Z,29.95
2018-03-06T00:17:52.633Z,28.67
2018-03-06T00:20:19.588Z,29.00
2018-03-06T00:22:46.248Z,29.80
2018-03-06T00:25:13.230Z,31.27
2018-03-06T00:27:39.904Z,25.12
2018-03-06T00:30:06.579Z,29.48
2018-03-06T00:32:33.249Z,30.25
2018-03-06T00:34:59.930Z,33.97
2018-03-06T00:37:26.588Z,29.05
2018-03-06T00:39:53.267Z,28.75
2018-03-06T00:42:19.918Z,25.37
2018-03-06T00:44:46.593Z,32.90
2018-03-06T00:47:13.265Z,28.12
2018-03-06T00:49:39.949Z,26.83
2018-03-06T00:52:06.596Z,32.30
2018-03-06T00:54:33.296Z,26.95
2018-03-06T00:56:59.945Z,25.42
2018-03-06T00:59:26.603Z,26.65
2018-03-06T01:01:53.260Z,23.87
2018-03-06T01:04:19.923Z,26.23
2018-03-06T01:06:46.588Z,28.52
2018-03-06T01:09:13.249Z,30.40
2018-03-06T01:11:39.901Z,28.17
2018-03-06T01:14:06.552Z,26.87
2018-03-06T01:16:33.200Z,25.90
2018-03-06T01:18:59.848Z,25.25
2018-03-06T01:21:26.510Z,24.83
2018-03-06T01:23:53.165Z,24.02
2018-03-06T01:26:19.818Z,27.20
2018-03-06T01:28:46.472Z,28.62
2018-03-06T01:31:13.146Z,31.95
2018-03-06T01:33:39.894Z,40.53
2018-03-06T01:36:06.545Z,33.22
2018-03-06T01:38:33.228Z,30.58
2018-03-06T01:40:59.909Z,34.30
2018-03-06T01:43:26.563Z,33.85
2018-03-06T01:45:53.247Z,37.83
2018-03-06T01:48:19.896Z,39.35
2018-03-06T01:50:46.559Z,39.58
2018-03-06T01:53:13.219Z,35.25
2018-03-06T01:55:39.895Z,39.63
2018-03-06T01:58:06.542Z,39.63
2018-03-06T02:00:33.241Z,40.72
2018-03-06T02:02:59.897Z,38.33
2018-03-06T02:05:26.554Z,35.35
2018-03-06T02:07:53.246Z,37.30
2018-03-06T02:10:19.909Z,41.55
2018-03-06T02:12:46.577Z,40.78
2018-03-06T02:15:13.245Z,39.05
2018-03-06T02:17:39.887Z,36.35
2018-03-06T02:20:06.549Z,45.70
2018-03-06T02:22:33.204Z,38.15
2018-03-06T02:24:59.852Z,42.45
2018-03-06T02:27:26.504Z,43.83
2018-03-06T02:29:53.168Z,37.00
2018-03-06T02:32:19.837Z,39.63
2018-03-06T02:34:46.496Z,35.42
2018-03-06T02:37:13.139Z,48.00
2018-03-06T02:39:39.795Z,42.33
2018-03-06T02:42:06.440Z,40.38
2018-03-06T02:44:33.091Z,43.80
2018-03-06T02:46:59.762Z,43.80
2018-03-06T02:49:26.464Z,44.22
2018-03-06T02:51:53.169Z,41.90
2018-03-06T02:54:19.829Z,43.15
2018-03-06T02:56:46.505Z,48.65
2018-03-06T02:59:13.181Z,46.63
2018-03-06T03:01:39.840Z,48.15
2018-03-06T03:04:06.887Z,48.33
2018-03-06T03:06:33.559Z,48.67
2018-03-06T03:09:00.206Z,49.15
2018-03-06T03:11:26.860Z,49.17
2018-03-06T03:13:53.520Z,43.08
2018-03-06T03:16:20.169Z,61.92
2018-03-06T03:18:46.845Z,53.87
2018-03-06T03:21:13.496Z,47.92
2018-03-06T03:23:40.166Z,52.13
2018-03-06T03:26:06.816Z,55.15
2018-03-06T03:28:33.492Z,56.35
2018-03-06T03:31:00.144Z,53.60
2018-03-06T03:33:26.808Z,51.67
2018-03-06T03:35:53.458Z,53.67
2018-03-06T03:38:20.121Z,59.22
2018-03-06T03:40:46.769Z,64.57
2018-03-06T03:43:13.441Z,67.57
2018-03-06T03:45:40.098Z,55.60
2018-03-06T03:48:06.781Z,63.08
2018-03-06T03:50:33.436Z,62.25
2018-03-06T03:53:00.101Z,65.37
2018-03-06T03:55:26.752Z,63.00
2018-03-06T03:57:53.405Z,61.42
2018-03-06T04:00:20.077Z,68.97
2018-03-06T04:02:46.732Z,69.28
2018-03-06T04:05:13.409Z,71.00
2018-03-06T04:07:40.057Z,69.57
2018-03-06T04:10:06.729Z,72.43
2018-03-06T04:12:33.382Z,75.00
2018-03-06T04:15:00.050Z,74.45
2018-03-06T04:17:26.702Z,80.85
2018-03-06T04:19:53.385Z,71.85
2018-03-06T04:22:20.037Z,80.47
2018-03-06T04:24:46.709Z,76.37
2018-03-06T04:27:13.366Z,86.28
2018-03-06T04:29:40.050Z,88.22
2018-03-06T04:32:06.705Z,93.82
2018-03-06T04:34:33.359Z,80.70
2018-03-06T04:37:00.011Z,88.03
2018-03-06T04:39:26.671Z,80.00
2018-03-06T04:41:53.332Z,76.65
2018-03-06T04:44:19.993Z,86.10
2018-03-06T04:46:46.648Z,81.55
2018-03-06T04:49:13.317Z,84.32
2018-03-06T04:51:39.989Z,77.62
2018-03-06T04:54:06.640Z,90.53
2018-03-06T04:56:33.303Z,82.88
2018-03-06T04:58:59.965Z,75.30
2018-03-06T05:01:26.977Z,84.82
2018-03-06T05:03:53.850Z,82.10
2018-03-06T05:06:20.530Z,89.95
2018-03-06T05:08:47.196Z,91.12
2018-03-06T05:11:13.904Z,97.05
2018-03-06T05:13:40.561Z,91.10
2018-03-06T05:16:07.249Z,95.07
2018-03-06T05:18:33.906Z,79.22
2018-03-06T05:21:00.571Z,87.32
2018-03-06T05:23:27.233Z,93.22
2018-03-06T05:25:53.889Z,84.43
2018-03-06T05:28:20.560Z,115.43
2018-03-06T05:30:47.212Z,92.03
2018-03-06T05:33:13.875Z,107.95
2018-03-06T05:35:40.549Z,113.47
2018-03-06T05:38:07.212Z,90.60
2018-03-06T05:40:34.058Z,108.12
2018-03-06T05:43:00.757Z,100.12
2018-03-06T05:45:27.417Z,110.93
2018-03-06T05:47:54.094Z,97.78
2018-03-06T05:50:20.750Z,115.80
2018-03-06T05:52:47.430Z,112.45
2018-03-06T05:55:14.093Z,107.18
2018-03-06T05:57:40.774Z,112.57
2018-03-06T06:00:07.440Z,105.12
2018-03-06T06:02:34.105Z,118.87
2018-03-06T06:05:00.809Z,115.75
2018-03-06T06:07:27.482Z,122.72
2018-03-06T06:09:54.271Z,121.18
2018-03-06T06:12:20.938Z,110.37
2018-03-06T06:14:47.605Z,116.07
2018-03-06T06:17:14.254Z,109.37
2018-03-06T06:19:40.903Z,119.70
2018-03-06T06:22:07.557Z,132.77
2018-03-06T06:24:34.262Z,117.50
2018-03-06T06:27:00.871Z,109.80
2018-03-06T06:29:27.518Z,117.95
2018-03-06T06:31:55.832Z,116.40
2018-03-06T06:34:23.152Z,115.15
2018-03-06T06:36:50.049Z,118.40
2018-03-06T06:39:16.730Z,122.05
2018-03-06T06:41:43.394Z,118.35
2018-03-06T06:44:10.048Z,118.25
2018-03-06T06:46:36.701Z,112.12
2018-03-06T06:49:03.363Z,123.85
2018-03-06T06:51:30.016Z,132.37
2018-03-06T06:53:56.671Z,118.90
2018-03-06T06:56:23.321Z,127.53
2018-03-06T06:58:49.978Z,119.47
2018-03-06T07:01:17.012Z,125.85
2018-03-06T07:03:44.180Z,119.10
2018-03-06T07:06:11.260Z,113.00
2018-03-06T07:08:38.901Z,117.80
2018-03-06T07:11:05.975Z,135.75
2018-03-06T07:13:32.889Z,127.93
2018-03-06T07:15:59.950Z,116.88
2018-03-06T07:18:26.654Z,115.37
2018-03-06T07:20:53.316Z,119.28
2018-03-06T07:23:19.973Z,131.68
2018-03-06T07:25:46.629Z,117.45
2018-03-06T07:28:13.272Z,117.82
2018-03-06T07:30:39.918Z,123.18
2018-03-06T07:33:06.570Z,121.90
2018-03-06T07:35:33.217Z,126.05
2018-03-06T07:37:59.870Z,120.25
2018-03-06T07:40:26.526Z,102.00
2018-03-06T07:42:53.176Z,114.37
2018-03-06T07:45:19.890Z,119.65
2018-03-06T07:47:46.521Z,91.50
2018-03-06T07:50:13.241Z,107.15
2018-03-06T07:52:39.886Z,109.80
2018-03-06T07:55:06.542Z,121.60
2018-03-06T07:57:33.246Z,110.97
2018-03-06T07:59:59.916Z,115.20
2018-03-06T08:02:26.618Z,111.05
2018-03-06T08:04:53.261Z,105.32
2018-03-06T08:07:19.917Z,106.03
2018-03-06T08:09:46.592Z,104.55
2018-03-06T08:12:13.250Z,103.80
2018-03-06T08:14:39.911Z,109.43
2018-03-06T08:17:06.577Z,103.35
2018-03-06T08:19:33.225Z,99.90
2018-03-06T08:21:59.896Z,107.78
2018-03-06T08:24:26.584Z,104.50
2018-03-06T08:26:53.242Z,100.18
2018-03-06T08:29:19.885Z,99.80
2018-03-06T08:31:46.534Z,103.87
2018-03-06T08:36:45.353Z,100.63
2018-03-06T08:39:12.015Z,91.77
2018-03-06T08:41:38.662Z,98.80
2018-03-06T08:44:05.322Z,98.47
2018-03-06T08:46:31.978Z,99.20
2018-03-06T08:48:58.613Z,99.83
2018-03-06T08:51:25.278Z,93.93
2018-03-06T08:53:51.952Z,100.67
2018-03-06T08:56:18.592Z,103.57
2018-03-06T08:58:45.265Z,102.47
2018-03-06T09:01:11.927Z,99.70
2018-03-06T09:03:38.606Z,94.90
2018-03-06T09:06:05.249Z,98.00
2018-03-06T09:08:31.916Z,94.90
2018-03-06T09:10:58.569Z,91.50
2018-03-06T09:13:25.249Z,91.27
2018-03-06T09:15:51.906Z,93.23
2018-03-06T09:18:18.579Z,90.97
2018-03-06T09:20:45.218Z,91.20
2018-03-06T09:23:11.889Z,98.20
2018-03-06T09:25:38.525Z,87.20
2018-03-06T09:28:05.216Z,91.87
2018-03-06T09:30:31.852Z,91.10
2018-03-06T09:32:58.539Z,89.63
2018-03-06T09:35:25.208Z,91.00
2018-03-06T09:37:51.856Z,92.33
2018-03-06T09:40:18.649Z,98.37
2018-03-06T09:42:45.289Z,94.90
2018-03-06T09:45:11.949Z,84.97
2018-03-06T09:47:38.603Z,90.20
2018-03-06T09:50:05.262Z,92.10
2018-03-06T09:52:31.913Z,90.13
2018-03-06T09:54:58.579Z,87.87
2018-03-06T09:57:25.225Z,84.53
2018-03-06T09:59:51.877Z,90.60
2018-03-06T10:02:18.513Z,88.03
2018-03-06T10:04:45.180Z,83.33
2018-03-06T10:07:11.875Z,88.27
2018-03-06T10:09:38.571Z,88.33
2018-03-06T10:12:05.247Z,89.43
2018-03-06T10:14:31.943Z,92.47
2018-03-06T10:16:58.633Z,93.87
2018-03-06T10:19:25.339Z,92.60
2018-03-06T10:21:52.034Z,89.97
2018-03-06T10:24:18.732Z,85.47
2018-03-06T10:26:45.409Z,84.70
2018-03-06T10:29:12.122Z,81.90
2018-03-06T10:31:38.878Z,82.03
2018-03-06T10:34:05.554Z,84.17
2018-03-06T10:36:32.253Z,92.67
2018-03-06T10:38:58.970Z,93.00
2018-03-06T10:41:25.672Z,85.93
2018-03-06T10:43:52.395Z,87.73
2018-03-06T10:46:19.047Z,87.60
2018-03-06T10:48:45.746Z,90.90
2018-03-06T10:51:12.422Z,88.00
2018-03-06T10:53:39.105Z,89.93
2018-03-06T10:56:05.799Z,93.57
2018-03-06T10:58:32.474Z,96.77
2018-03-06T11:00:59.186Z,92.77
2018-03-06T11:03:25.875Z,91.33
2018-03-06T11:05:52.554Z,89.03
2018-03-06T11:08:19.252Z,88.03
2018-03-06T11:10:45.893Z,85.50
2018-03-06T11:13:12.540Z,86.90
2018-03-06T11:15:39.201Z,87.33
2018-03-06T11:18:05.843Z,90.73
2018-03-06T11:20:33.404Z,94.63
2018-03-06T11:23:00.043Z,93.90
2018-03-06T11:25:26.691Z,93.53
2018-03-06T11:27:53.330Z,88.97
2018-03-06T11:30:19.966Z,96.40
2018-03-06T11:32:46.617Z,91.93
2018-03-06T11:35:13.289Z,96.17
2018-03-06T11:37:39.997Z,89.20
2018-03-06T11:40:06.647Z,91.30
2018-03-06T11:42:33.311Z,91.17
2018-03-06T11:44:59.965Z,90.97
2018-03-06T11:47:26.625Z,93.80
2018-03-06T11:49:53.310Z,95.60
2018-03-06T11:52:19.961Z,93.97
2018-03-06T11:54:46.613Z,92.78
2018-03-06T11:57:13.275Z,91.68
2018-03-06T11:59:39.925Z,90.07
2018-03-06T12:02:06.577Z,90.87
2018-03-06T12:04:33.233Z,98.72
2018-03-06T12:06:59.893Z,94.15
2018-03-06T12:09:26.541Z,98.37
2018-03-06T12:11:53.181Z,90.53
2018-03-06T12:14:19.826Z,96.60
2018-03-06T12:16:46.481Z,94.32
2018-03-06T12:19:13.126Z,90.85
2018-03-06T12:21:39.785Z,93.22
2018-03-06T12:24:06.437Z,86.15
2018-03-06T12:26:33.114Z,93.65
2018-03-06T12:28:59.750Z,92.70
2018-03-06T12:31:26.406Z,93.43
2018-03-06T12:33:53.058Z,85.43
2018-03-06T12:36:19.705Z,87.70
2018-03-06T12:38:46.345Z,96.50
2018-03-06T12:41:12.998Z,93.35
2018-03-06T12:43:39.641Z,93.40
2018-03-06T12:46:06.285Z,89.80
2018-03-06T12:48:32.926Z,97.25
2018-03-06T12:50:59.570Z,96.40
2018-03-06T12:53:26.218Z,89.95
2018-03-06T12:55:52.901Z,91.25
2018-03-06T12:58:19.544Z,93.57
2018-03-06T13:00:46.197Z,93.72
2018-03-06T13:03:12.841Z,98.72
2018-03-06T13:05:39.485Z,94.00
2018-03-06T13:08:06.126Z,101.60
2018-03-06T13:10:32.770Z,111.05
2018-03-06T13:12:59.415Z,93.40
2018-03-06T13:15:26.062Z,122.72
2018-03-06T13:17:52.750Z,96.07
2018-03-06T13:20:19.380Z,99.05
2018-03-06T13:22:46.030Z,101.38
2018-03-06T13:25:12.677Z,102.65
2018-03-06T13:27:39.324Z,93.22
2018-03-06T13:30:05.976Z,95.32
2018-03-06T13:32:32.629Z,103.50
2018-03-06T13:34:59.318Z,115.40
2018-03-06T13:37:25.983Z,107.68
2018-03-06T13:39:52.751Z,94.07
2018-03-06T13:42:19.364Z,100.35
2018-03-06T13:44:46.034Z,101.25
2018-03-06T13:47:12.696Z,112.30
2018-03-06T13:49:39.366Z,97.57
2018-03-06T13:52:06.010Z,90.30
2018-03-06T13:54:32.676Z,99.75
2018-03-06T13:56:59.324Z,93.87
2018-03-06T13:59:25.988Z,90.35
2018-03-06T14:01:52.632Z,97.03
2018-03-06T14:04:19.295Z,91.63
2018-03-06T14:06:45.935Z,93.90
2018-03-06T14:09:12.595Z,99.55
2018-03-06T14:11:39.255Z,102.12
2018-03-06T14:14:05.935Z,109.30
2018-03-06T14:16:32.587Z,103.65
2018-03-06T14:18:59.229Z,99.28
2018-03-06T14:21:25.909Z,92.10
2018-03-06T14:23:52.553Z,97.37
2018-03-06T14:26:19.230Z,94.75
2018-03-06T14:28:45.874Z,96.22
2018-03-06T14:31:12.533Z,99.97
2018-03-06T14:33:39.201Z,106.97
2018-03-06T14:36:05.871Z,101.25
2018-03-06T14:38:33.396Z,101.07
2018-03-06T14:41:00.082Z,110.85
2018-03-06T14:43:26.737Z,104.33
2018-03-06T14:45:53.435Z,103.93
2018-03-06T14:48:20.090Z,106.70
2018-03-06T14:50:46.758Z,103.53
2018-03-06T14:53:13.767Z,102.70
2018-03-06T14:55:40.487Z,106.32
2018-03-06T14:58:07.158Z,106.70
2018-03-06T15:00:33.836Z,101.95
2018-03-06T15:03:00.921Z,107.37
2018-03-06T15:05:27.620Z,105.97
2018-03-06T15:07:54.745Z,102.25
2018-03-06T15:10:23.206Z,101.28
2018-03-06T15:12:50.236Z,91.43
2018-03-06T15:15:17.190Z,106.22
2018-03-06T15:17:44.170Z,110.03
2018-03-06T15:20:12.212Z,102.50
2018-03-06T15:22:39.235Z,108.18
2018-03-06T15:25:06.377Z,104.45
2018-03-06T15:27:33.081Z,103.87
2018-03-06T15:30:00.319Z,100.22
2018-03-06T15:32:27.534Z,102.70
2018-03-06T15:34:54.687Z,104.20
2018-03-06T15:37:21.669Z,108.95
2018-03-06T15:39:48.736Z,98.78
2018-03-06T15:42:17.162Z,108.00
2018-03-06T15:44:44.214Z,105.85
2018-03-06T15:47:10.919Z,105.75
2018-03-06T15:49:37.607Z,107.72
2018-03-06T15:52:04.522Z,101.30
2018-03-06T15:54:31.541Z,103.07
2018-03-06T15:56:59.489Z,100.10
2018-03-06T15:59:27.786Z,103.82
2018-03-06T16:01:55.124Z,91.43
2018-03-06T16:04:22.179Z,105.85
2018-03-06T16:06:49.095Z,96.20
2018-03-06T16:09:16.144Z,103.30
2018-03-06T16:11:42.851Z,99.25
2018-03-06T16:14:09.879Z,107.78
2018-03-06T16:16:36.946Z,101.97
2018-03-06T16:19:03.979Z,102.70
2018-03-06T16:21:31.094Z,103.87
2018-03-06T16:23:58.193Z,104.53
2018-03-06T16:26:25.286Z,104.25
2018-03-06T16:28:52.203Z,100.70
2018-03-06T16:31:18.857Z,113.18
2018-03-06T16:33:45.557Z,108.50
2018-03-06T16:36:12.489Z,101.53
2018-03-06T16:38:39.186Z,108.18
2018-03-06T16:41:05.843Z,107.43
2018-03-06T16:43:32.510Z,101.10
2018-03-06T16:45:59.160Z,119.95
2018-03-06T16:48:25.834Z,94.53
2018-03-06T16:50:52.477Z,99.82
2018-03-06T16:53:19.162Z,106.45
2018-03-06T16:55:45.805Z,110.43
2018-03-06T16:58:12.491Z,103.10
2018-03-06T17:00:39.159Z,102.93
2018-03-06T17:03:05.809Z,95.62
2018-03-06T17:05:32.454Z,103.87
2018-03-06T17:07:59.125Z,108.50
2018-03-06T17:10:25.778Z,107.53
2018-03-06T17:12:52.443Z,96.78
2018-03-06T17:15:19.093Z,101.78
2018-03-06T17:17:45.737Z,106.12
2018-03-06T17:20:12.382Z,89.85
2018-03-06T17:22:39.061Z,87.43
2018-03-06T17:25:05.717Z,103.10
2018-03-06T17:27:32.379Z,95.00
2018-03-06T17:29:59.018Z,93.68
2018-03-06T17:32:25.665Z,93.12
2018-03-06T17:34:52.326Z,88.25
2018-03-06T17:37:18.993Z,92.53
2018-03-06T17:39:46.445Z,90.87
2018-03-06T17:42:14.653Z,94.22
2018-03-06T17:44:41.724Z,97.57
2018-03-06T17:47:08.365Z,91.68
2018-03-06T17:49:35.048Z,89.95
2018-03-06T17:52:01.695Z,92.72
2018-03-06T17:54:28.352Z,107.03
2018-03-06T17:56:55.018Z,94.95
2018-03-06T17:59:21.665Z,92.07
2018-03-06T18:01:48.372Z,101.07
2018-03-06T18:04:15.037Z,113.40
2018-03-06T18:06:41.852Z,98.60
2018-03-06T18:09:08.578Z,96.97
2018-03-06T18:11:35.221Z,104.53
2018-03-06T18:14:01.862Z,98.10
2018-03-06T18:16:28.655Z,110.32
2018-03-06T18:18:55.778Z,113.12
2018-03-06T18:21:22.704Z,100.38
2018-03-06T18:23:49.359Z,97.25
2018-03-06T18:26:16.022Z,101.28
2018-03-06T18:28:42.699Z,95.18
2018-03-06T18:31:09.359Z,106.60
2018-03-06T18:33:36.024Z,100.03
2018-03-06T18:36:02.683Z,99.25
2018-03-06T18:38:29.330Z,104.50
2018-03-06T18:40:55.983Z,105.18
2018-03-06T18:43:22.636Z,99.68
2018-03-06T18:45:49.296Z,101.00
2018-03-06T18:48:15.968Z,95.78
2018-03-06T18:50:48.453Z,107.93
2018-03-06T18:53:15.129Z,100.22
2018-03-06T18:55:41.782Z,104.87
2018-03-06T18:58:08.478Z,100.12
2018-03-06T19:00:52.967Z,97.53
2018-03-06T19:03:25.275Z,94.55
2018-03-06T19:05:57.792Z,94.30
2018-03-06T19:08:24.452Z,99.25
2018-03-06T19:10:51.108Z,102.65
2018-03-06T19:13:17.817Z,90.68
2018-03-06T19:15:44.466Z,102.00
2018-03-06T19:18:11.624Z,100.47
2018-03-06T19:20:38.270Z,94.50
2018-03-06T19:23:04.932Z,101.57
2018-03-06T19:25:31.577Z,106.37
2018-03-06T19:27:58.254Z,101.05
2018-03-06T19:30:24.897Z,95.25
2018-03-06T19:32:51.577Z,101.78
2018-03-06T19:35:18.237Z,107.70
2018-03-06T19:37:44.903Z,100.80
2018-03-06T19:40:11.552Z,110.03
2018-03-06T19:42:38.206Z,101.55
2018-03-06T19:45:04.877Z,107.50
2018-03-06T19:47:31.525Z,110.20
2018-03-06T19:49:58.197Z,102.32
2018-03-06T19:52:24.857Z,105.05
2018-03-06T19:54:51.588Z,104.78
2018-03-06T19:57:18.271Z,100.20
2018-03-06T19:59:44.926Z,98.60
2018-03-06T20:02:11.583Z,102.03
2018-03-06T20:04:38.248Z,101.95
2018-03-06T20:07:04.906Z,98.45
2018-03-06T20:09:31.650Z,103.05
2018-03-06T20:11:58.347Z,96.40
2018-03-06T20:14:30.731Z,109.37
2018-03-06T20:16:57.435Z,98.90
2018-03-06T20:19:29.699Z,91.72
2018-03-06T20:21:56.353Z,105.63
2018-03-06T20:24:28.725Z,106.00
2018-03-06T20:26:55.392Z,99.03
2018-03-06T20:29:22.062Z,105.32
2018-03-06T20:31:54.362Z,100.60
2018-03-06T20:34:21.029Z,94.62
2018-03-06T20:36:47.677Z,99.82
2018-03-06T20:39:21.230Z,102.60
2018-03-06T20:41:47.917Z,100.43
2018-03-06T20:44:14.568Z,112.70
2018-03-06T20:46:46.935Z,96.05
2018-03-06T20:49:13.581Z,95.97
2018-03-06T20:51:40.230Z,99.28
2018-03-06T20:54:12.685Z,97.45
2018-03-06T20:56:39.384Z,100.30
2018-03-06T20:59:06.056Z,113.12
2018-03-06T21:01:32.703Z,100.60
2018-03-06T21:03:59.352Z,100.53
2018-03-06T21:06:25.999Z,99.57
2018-03-06T21:08:52.663Z,99.62
2018-03-06T21:11:19.312Z,104.10
2018-03-06T21:13:46.061Z,106.82
2018-03-06T21:16:12.755Z,92.22
2018-03-06T21:18:44.501Z,98.80
2018-03-06T21:21:11.162Z,103.25
2018-03-06T21:23:37.877Z,105.35
2018-03-06T21:26:04.538Z,104.25
2018-03-06T21:28:31.193Z,101.07
2018-03-06T21:30:57.949Z,106.93
2018-03-06T21:33:24.594Z,106.15
2018-03-06T21:35:51.262Z,105.07
2018-03-06T21:38:17.926Z,109.22
2018-03-06T21:40:44.575Z,105.97
2018-03-06T21:43:11.252Z,90.38
2018-03-06T21:45:37.918Z,100.03
2018-03-06T21:48:04.574Z,104.43
2018-03-06T21:50:31.242Z,95.60
2018-03-06T21:52:57.897Z,98.65
2018-03-06T21:55:24.546Z,102.43
2018-03-06T21:57:51.196Z,107.12
2018-03-06T22:00:17.836Z,101.05
2018-03-06T22:02:44.498Z,102.57
2018-03-06T22:05:11.146Z,110.03
2018-03-06T22:07:37.813Z,106.25
2018-03-06T22:10:04.470Z,94.53
2018-03-06T22:12:31.169Z,110.32
2018-03-06T22:14:57.823Z,112.90
2018-03-06T22:17:24.474Z,114.05
2018-03-06T22:19:51.126Z,104.65
2018-03-06T22:22:17.802Z,106.18
2018-03-06T22:24:44.461Z,111.57
2018-03-06T22:27:11.116Z,114.93
2018-03-06T22:29:37.761Z,110.32
2018-03-06T22:32:04.421Z,101.75
2018-03-06T22:34:31.069Z,112.62
2018-03-06T22:36:57.729Z,106.00
2018-03-06T22:39:24.544Z,108.50
2018-03-06T22:41:51.309Z,106.65
2018-03-06T22:44:17.959Z,108.03
2018-03-06T22:46:44.625Z,115.10
2018-03-06T22:49:11.299Z,114.75
2018-03-06T22:51:37.947Z,113.10
2018-03-06T22:54:04.614Z,106.45
2018-03-06T22:56:31.252Z,112.03
2018-03-06T22:58:59.151Z,117.05
2018-03-06T23:01:25.861Z,122.75
2018-03-06T23:03:52.529Z,119.65
2018-03-06T23:06:19.176Z,112.12
2018-03-06T23:08:45.866Z,116.90
2018-03-06T23:11:12.524Z,110.72
2018-03-06T23:13:39.188Z,112.25
2018-03-06T23:16:05.853Z,117.07
2018-03-06T23:18:32.517Z,119.03
2018-03-06T23:20:59.178Z,112.40
2018-03-06T23:23:25.848Z,114.62
2018-03-06T23:25:52.497Z,121.05
2018-03-06T23:28:19.171Z,108.60
2018-03-06T23:30:45.816Z,114.82
2018-03-06T23:33:12.473Z,117.05
2018-03-06T23:35:39.125Z,114.80
2018-03-06T23:38:05.790Z,121.68
2018-03-06T23:40:32.432Z,112.62
2018-03-06T23:42:59.094Z,124.07
2018-03-06T23:45:25.738Z,119.43
2018-03-06T23:47:52.450Z,110.15
2018-03-06T23:50:19.089Z,110.63
2018-03-06T23:52:45.758Z,120.03
2018-03-06T23:55:12.401Z,121.85
2018-03-06T23:57:39.040Z,117.62
